sensor_id;sensor_type;location;lat;lon;timestamp;P1;durP1;ratioP1;P2;durP2;ratioP2
72791;SDS011;60907;53.268;8.764;2024-02-26T00:01:39;7.83;;;3.60;;
72791;SDS011;60907;53.268;8.764;2024-02-26T00:04:04;6.90;;;3.13;;
72791;SDS011;60907;53.268;8.764;2024-02-26T00:06:30;8.37;;;4.40;;
72791;SDS011;60907;53.268;8.764;2024-02-26T00:08:55;7.75;;;4.15;;
72791;SDS011;60907;53.268;8.764;2024-02-26T00:11:21;6.73;;;3.63;;
72791;SDS011;60907;53.268;8.764;2024-02-26T00:13:46;7.03;;;3.80;;
72791;SDS011;60907;53.268;8.764;2024-02-26T00:16:11;10.50;;;4.70;;
72791;SDS011;60907;53.268;8.764;2024-02-26T00:18:36;8.50;;;4.10;;
72791;SDS011;60907;53.268;8.764;2024-02-26T00:21:02;8.00;;;4.40;;
72791;SDS011;60907;53.268;8.764;2024-02-26T00:23:27;9.70;;;5.00;;
72791;SDS011;60907;53.268;8.764;2024-02-26T00:25:52;7.10;;;4.27;;
72791;SDS011;60907;53.268;8.764;2024-02-26T00:28:18;7.30;;;4.27;;
72791;SDS011;60907;53.268;8.764;2024-02-26T00:30:45;7.97;;;4.05;;
72791;SDS011;60907;53.268;8.764;2024-02-26T00:33:10;7.95;;;4.18;;
72791;SDS011;60907;53.268;8.764;2024-02-26T00:35:35;8.77;;;4.37;;
72791;SDS011;60907;53.268;8.764;2024-02-26T00:38:01;8.90;;;3.97;;
72791;SDS011;60907;53.268;8.764;2024-02-26T00:40:28;9.40;;;4.90;;
72791;SDS011;60907;53.268;8.764;2024-02-26T00:42:53;8.97;;;4.50;;
72791;SDS011;60907;53.268;8.764;2024-02-26T00:45:18;8.77;;;4.50;;
72791;SDS011;60907;53.268;8.764;2024-02-26T00:47:44;9.13;;;5.00;;
72791;SDS011;60907;53.268;8.764;2024-02-26T00:50:10;10.55;;;4.80;;
72791;SDS011;60907;53.268;8.764;2024-02-26T00:52:35;7.67;;;4.40;;
72791;SDS011;60907;53.268;8.764;2024-02-26T00:55:02;11.10;;;4.13;;
72791;SDS011;60907;53.268;8.764;2024-02-26T00:57:27;9.45;;;4.00;;
72791;SDS011;60907;53.268;8.764;2024-02-26T00:59:52;8.67;;;4.27;;
72791;SDS011;60907;53.268;8.764;2024-02-26T01:02:18;8.70;;;3.73;;
72791;SDS011;60907;53.268;8.764;2024-02-26T01:04:43;9.50;;;4.27;;
72791;SDS011;60907;53.268;8.764;2024-02-26T01:07:08;7.97;;;4.30;;
72791;SDS011;60907;53.268;8.764;2024-02-26T01:09:34;8.87;;;3.90;;
72791;SDS011;60907;53.268;8.764;2024-02-26T01:11:59;9.45;;;4.22;;
72791;SDS011;60907;53.268;8.764;2024-02-26T01:14:24;9.17;;;4.10;;
72791;SDS011;60907;53.268;8.764;2024-02-26T01:16:50;10.17;;;4.37;;
72791;SDS011;60907;53.268;8.764;2024-02-26T01:19:15;7.70;;;4.03;;
72791;SDS011;60907;53.268;8.764;2024-02-26T01:21:40;8.47;;;4.17;;
72791;SDS011;60907;53.268;8.764;2024-02-26T01:24:06;10.10;;;5.10;;
72791;SDS011;60907;53.268;8.764;2024-02-26T01:26:32;9.10;;;4.53;;
72791;SDS011;60907;53.268;8.764;2024-02-26T01:28:57;8.38;;;4.20;;
72791;SDS011;60907;53.268;8.764;2024-02-26T01:31:22;8.30;;;3.73;;
72791;SDS011;60907;53.268;8.764;2024-02-26T01:33:48;9.80;;;4.20;;
72791;SDS011;60907;53.268;8.764;2024-02-26T01:36:13;8.43;;;4.43;;
72791;SDS011;60907;53.268;8.764;2024-02-26T01:38:38;10.37;;;4.20;;
72791;SDS011;60907;53.268;8.764;2024-02-26T01:41:04;8.23;;;4.00;;
72791;SDS011;60907;53.268;8.764;2024-02-26T01:43:29;8.47;;;4.40;;
72791;SDS011;60907;53.268;8.764;2024-02-26T01:45:54;10.33;;;5.63;;
72791;SDS011;60907;53.268;8.764;2024-02-26T01:48:20;9.25;;;4.57;;
72791;SDS011;60907;53.268;8.764;2024-02-26T01:50:45;10.20;;;4.22;;
72791;SDS011;60907;53.268;8.764;2024-02-26T01:53:11;8.80;;;4.07;;
72791;SDS011;60907;53.268;8.764;2024-02-26T01:55:37;7.78;;;3.67;;
72791;SDS011;60907;53.268;8.764;2024-02-26T01:58:02;9.63;;;4.30;;
72791;SDS011;60907;53.268;8.764;2024-02-26T02:00:28;9.88;;;4.68;;
72791;SDS011;60907;53.268;8.764;2024-02-26T02:02:53;7.85;;;4.22;;
72791;SDS011;60907;53.268;8.764;2024-02-26T02:05:20;9.57;;;5.07;;
72791;SDS011;60907;53.268;8.764;2024-02-26T02:07:45;12.60;;;5.13;;
72791;SDS011;60907;53.268;8.764;2024-02-26T02:10:13;8.77;;;4.82;;
72791;SDS011;60907;53.268;8.764;2024-02-26T02:12:38;9.75;;;4.63;;
72791;SDS011;60907;53.268;8.764;2024-02-26T02:15:05;10.57;;;5.05;;
72791;SDS011;60907;53.268;8.764;2024-02-26T02:17:30;9.85;;;4.78;;
72791;SDS011;60907;53.268;8.764;2024-02-26T02:19:56;8.45;;;4.25;;
72791;SDS011;60907;53.268;8.764;2024-02-26T02:22:21;9.77;;;4.73;;
72791;SDS011;60907;53.268;8.764;2024-02-26T02:24:47;7.85;;;4.25;;
72791;SDS011;60907;53.268;8.764;2024-02-26T02:27:12;8.87;;;4.27;;
72791;SDS011;60907;53.268;8.764;2024-02-26T02:29:37;8.00;;;4.20;;
72791;SDS011;60907;53.268;8.764;2024-02-26T02:32:03;10.55;;;4.75;;
72791;SDS011;60907;53.268;8.764;2024-02-26T02:34:29;9.50;;;4.15;;
72791;SDS011;60907;53.268;8.764;2024-02-26T02:36:54;8.10;;;4.07;;
72791;SDS011;60907;53.268;8.764;2024-02-26T02:39:20;7.50;;;3.45;;
72791;SDS011;60907;53.268;8.764;2024-02-26T02:41:46;8.05;;;4.18;;
72791;SDS011;60907;53.268;8.764;2024-02-26T02:44:11;8.82;;;3.50;;
72791;SDS011;60907;53.268;8.764;2024-02-26T02:46:37;9.45;;;4.00;;
72791;SDS011;60907;53.268;8.764;2024-02-26T02:49:02;8.88;;;3.60;;
72791;SDS011;60907;53.268;8.764;2024-02-26T02:51:27;9.07;;;4.17;;
72791;SDS011;60907;53.268;8.764;2024-02-26T02:53:52;7.70;;;4.27;;
72791;SDS011;60907;53.268;8.764;2024-02-26T02:56:18;7.70;;;3.80;;
72791;SDS011;60907;53.268;8.764;2024-02-26T02:58:43;7.35;;;3.60;;
72791;SDS011;60907;53.268;8.764;2024-02-26T03:01:09;8.40;;;4.03;;
72791;SDS011;60907;53.268;8.764;2024-02-26T03:03:34;7.93;;;3.97;;
72791;SDS011;60907;53.268;8.764;2024-02-26T03:06:01;9.10;;;4.05;;
72791;SDS011;60907;53.268;8.764;2024-02-26T03:08:27;9.85;;;4.18;;
72791;SDS011;60907;53.268;8.764;2024-02-26T03:10:52;9.90;;;3.70;;
72791;SDS011;60907;53.268;8.764;2024-02-26T03:13:17;7.57;;;3.60;;
72791;SDS011;60907;53.268;8.764;2024-02-26T03:15:43;7.80;;;3.30;;
72791;SDS011;60907;53.268;8.764;2024-02-26T03:18:08;10.53;;;4.40;;
72791;SDS011;60907;53.268;8.764;2024-02-26T03:20:33;8.33;;;3.90;;
72791;SDS011;60907;53.268;8.764;2024-02-26T03:22:59;8.17;;;3.50;;
72791;SDS011;60907;53.268;8.764;2024-02-26T03:25:24;9.47;;;4.23;;
72791;SDS011;60907;53.268;8.764;2024-02-26T03:27:49;7.90;;;3.70;;
72791;SDS011;60907;53.268;8.764;2024-02-26T03:30:15;9.52;;;4.18;;
72791;SDS011;60907;53.268;8.764;2024-02-26T03:32:40;9.48;;;4.00;;
72791;SDS011;60907;53.268;8.764;2024-02-26T03:35:06;8.37;;;3.73;;
72791;SDS011;60907;53.268;8.764;2024-02-26T03:37:32;9.10;;;3.80;;
72791;SDS011;60907;53.268;8.764;2024-02-26T03:39:58;9.93;;;4.20;;
72791;SDS011;60907;53.268;8.764;2024-02-26T03:42:23;11.67;;;4.27;;
72791;SDS011;60907;53.268;8.764;2024-02-26T03:44:48;8.25;;;4.25;;
72791;SDS011;60907;53.268;8.764;2024-02-26T03:47:14;9.23;;;4.07;;
72791;SDS011;60907;53.268;8.764;2024-02-26T03:49:39;11.83;;;4.67;;
72791;SDS011;60907;53.268;8.764;2024-02-26T03:52:04;11.83;;;4.33;;
72791;SDS011;60907;53.268;8.764;2024-02-26T03:54:30;12.53;;;5.13;;
72791;SDS011;60907;53.268;8.764;2024-02-26T03:56:55;12.80;;;4.93;;
72791;SDS011;60907;53.268;8.764;2024-02-26T03:59:20;12.60;;;5.47;;
72791;SDS011;60907;53.268;8.764;2024-02-26T04:01:47;14.80;;;6.10;;
72791;SDS011;60907;53.268;8.764;2024-02-26T04:04:12;9.93;;;4.93;;
72791;SDS011;60907;53.268;8.764;2024-02-26T04:06:37;13.60;;;5.05;;
72791;SDS011;60907;53.268;8.764;2024-02-26T04:09:03;15.73;;;5.60;;
72791;SDS011;60907;53.268;8.764;2024-02-26T04:11:29;14.25;;;5.93;;
72791;SDS011;60907;53.268;8.764;2024-02-26T04:13:54;16.67;;;6.53;;
72791;SDS011;60907;53.268;8.764;2024-02-26T04:16:19;14.97;;;6.10;;
72791;SDS011;60907;53.268;8.764;2024-02-26T04:18:44;17.77;;;6.63;;
72791;SDS011;60907;53.268;8.764;2024-02-26T04:21:10;13.93;;;6.23;;
72791;SDS011;60907;53.268;8.764;2024-02-26T04:23:35;13.83;;;5.90;;
72791;SDS011;60907;53.268;8.764;2024-02-26T04:26:00;15.60;;;6.43;;
72791;SDS011;60907;53.268;8.764;2024-02-26T04:28:25;16.10;;;6.53;;
72791;SDS011;60907;53.268;8.764;2024-02-26T04:30:53;17.48;;;6.07;;
72791;SDS011;60907;53.268;8.764;2024-02-26T04:33:19;16.93;;;6.33;;
72791;SDS011;60907;53.268;8.764;2024-02-26T04:35:44;25.40;;;6.63;;
72791;SDS011;60907;53.268;8.764;2024-02-26T04:38:09;21.67;;;6.50;;
72791;SDS011;60907;53.268;8.764;2024-02-26T04:40:34;16.77;;;5.80;;
72791;SDS011;60907;53.268;8.764;2024-02-26T04:43:00;19.27;;;7.47;;
72791;SDS011;60907;53.268;8.764;2024-02-26T04:45:25;22.10;;;6.80;;
72791;SDS011;60907;53.268;8.764;2024-02-26T04:47:50;24.47;;;6.77;;
72791;SDS011;60907;53.268;8.764;2024-02-26T04:50:15;17.70;;;6.33;;
72791;SDS011;60907;53.268;8.764;2024-02-26T04:52:41;25.23;;;7.80;;
72791;SDS011;60907;53.268;8.764;2024-02-26T04:55:07;11.73;;;4.80;;
72791;SDS011;60907;53.268;8.764;2024-02-26T04:57:32;16.60;;;6.22;;
72791;SDS011;60907;53.268;8.764;2024-02-26T04:59:57;21.17;;;8.27;;
72791;SDS011;60907;53.268;8.764;2024-02-26T05:02:22;22.20;;;7.20;;
72791;SDS011;60907;53.268;8.764;2024-02-26T05:04:48;21.60;;;5.53;;
72791;SDS011;60907;53.268;8.764;2024-02-26T05:07:13;30.63;;;9.00;;
72791;SDS011;60907;53.268;8.764;2024-02-26T05:09:39;28.77;;;9.20;;
72791;SDS011;60907;53.268;8.764;2024-02-26T05:12:05;19.08;;;7.13;;
72791;SDS011;60907;53.268;8.764;2024-02-26T05:14:30;21.50;;;7.95;;
72791;SDS011;60907;53.268;8.764;2024-02-26T05:16:56;17.37;;;7.23;;
72791;SDS011;60907;53.268;8.764;2024-02-26T05:19:21;25.97;;;8.07;;
72791;SDS011;60907;53.268;8.764;2024-02-26T05:21:46;19.87;;;8.07;;
72791;SDS011;60907;53.268;8.764;2024-02-26T05:26:40;21.42;;;8.40;;
72791;SDS011;60907;53.268;8.764;2024-02-26T05:29:06;24.70;;;10.05;;
72791;SDS011;60907;53.268;8.764;2024-02-26T05:31:31;20.23;;;8.37;;
72791;SDS011;60907;53.268;8.764;2024-02-26T05:33:56;24.30;;;8.73;;
72791;SDS011;60907;53.268;8.764;2024-02-26T05:36:21;23.30;;;8.60;;
72791;SDS011;60907;53.268;8.764;2024-02-26T05:38:47;24.35;;;10.20;;
72791;SDS011;60907;53.268;8.764;2024-02-26T05:41:13;22.00;;;8.73;;
72791;SDS011;60907;53.268;8.764;2024-02-26T05:43:39;25.80;;;9.38;;
72791;SDS011;60907;53.268;8.764;2024-02-26T05:46:04;23.90;;;9.63;;
72791;SDS011;60907;53.268;8.764;2024-02-26T05:48:29;27.27;;;9.57;;
72791;SDS011;60907;53.268;8.764;2024-02-26T05:50:55;16.30;;;7.22;;
72791;SDS011;60907;53.268;8.764;2024-02-26T05:53:20;25.80;;;9.98;;
72791;SDS011;60907;53.268;8.764;2024-02-26T05:55:46;23.30;;;9.57;;
72791;SDS011;60907;53.268;8.764;2024-02-26T05:58:11;25.57;;;8.97;;
72791;SDS011;60907;53.268;8.764;2024-02-26T06:00:36;21.40;;;7.70;;
72791;SDS011;60907;53.268;8.764;2024-02-26T06:03:01;20.67;;;8.27;;
72791;SDS011;60907;53.268;8.764;2024-02-26T06:05:27;23.45;;;8.43;;
72791;SDS011;60907;53.268;8.764;2024-02-26T06:07:52;22.33;;;9.10;;
72791;SDS011;60907;53.268;8.764;2024-02-26T06:10:17;19.57;;;7.47;;
72791;SDS011;60907;53.268;8.764;2024-02-26T06:12:46;20.13;;;7.72;;
72791;SDS011;60907;53.268;8.764;2024-02-26T06:15:11;18.37;;;7.40;;
72791;SDS011;60907;53.268;8.764;2024-02-26T06:17:37;20.80;;;7.65;;
72791;SDS011;60907;53.268;8.764;2024-02-26T06:20:02;19.90;;;7.57;;
72791;SDS011;60907;53.268;8.764;2024-02-26T06:22:29;19.88;;;7.85;;
72791;SDS011;60907;53.268;8.764;2024-02-26T06:24:54;18.23;;;8.18;;
72791;SDS011;60907;53.268;8.764;2024-02-26T06:27:20;22.93;;;8.40;;
72791;SDS011;60907;53.268;8.764;2024-02-26T06:29:46;22.23;;;8.98;;
72791;SDS011;60907;53.268;8.764;2024-02-26T06:32:12;15.23;;;7.27;;
72791;SDS011;60907;53.268;8.764;2024-02-26T06:34:37;21.47;;;7.87;;
72791;SDS011;60907;53.268;8.764;2024-02-26T06:37:03;21.13;;;8.18;;
72791;SDS011;60907;53.268;8.764;2024-02-26T06:39:28;14.10;;;6.17;;
72791;SDS011;60907;53.268;8.764;2024-02-26T06:41:54;16.87;;;7.13;;
72791;SDS011;60907;53.268;8.764;2024-02-26T06:44:25;21.13;;;7.78;;
72791;SDS011;60907;53.268;8.764;2024-02-26T06:46:51;18.50;;;8.15;;
72791;SDS011;60907;53.268;8.764;2024-02-26T06:49:16;16.23;;;7.23;;
72791;SDS011;60907;53.268;8.764;2024-02-26T06:51:41;14.40;;;6.60;;
72791;SDS011;60907;53.268;8.764;2024-02-26T06:54:06;15.07;;;6.97;;
72791;SDS011;60907;53.268;8.764;2024-02-26T06:56:32;16.13;;;6.93;;
72791;SDS011;60907;53.268;8.764;2024-02-26T06:58:57;17.60;;;6.43;;
72791;SDS011;60907;53.268;8.764;2024-02-26T07:01:22;14.80;;;6.67;;
72791;SDS011;60907;53.268;8.764;2024-02-26T07:03:47;13.43;;;6.20;;
72791;SDS011;60907;53.268;8.764;2024-02-26T07:06:13;15.67;;;7.07;;
72791;SDS011;60907;53.268;8.764;2024-02-26T07:08:39;14.45;;;6.20;;
72791;SDS011;60907;53.268;8.764;2024-02-26T07:11:07;19.40;;;8.07;;
72791;SDS011;60907;53.268;8.764;2024-02-26T07:13:32;15.98;;;6.35;;
72791;SDS011;60907;53.268;8.764;2024-02-26T07:15:57;17.27;;;7.00;;
72791;SDS011;60907;53.268;8.764;2024-02-26T07:18:22;16.57;;;6.37;;
72791;SDS011;60907;53.268;8.764;2024-02-26T07:20:48;16.33;;;5.93;;
72791;SDS011;60907;53.268;8.764;2024-02-26T07:23:13;13.07;;;5.77;;
72791;SDS011;60907;53.268;8.764;2024-02-26T07:25:38;13.07;;;6.03;;
72791;SDS011;60907;53.268;8.764;2024-02-26T07:28:04;11.43;;;5.43;;
72791;SDS011;60907;53.268;8.764;2024-02-26T07:30:29;12.27;;;5.97;;
72791;SDS011;60907;53.268;8.764;2024-02-26T07:32:54;12.63;;;5.37;;
72791;SDS011;60907;53.268;8.764;2024-02-26T07:35:19;12.93;;;5.93;;
72791;SDS011;60907;53.268;8.764;2024-02-26T07:37:47;12.02;;;6.38;;
72791;SDS011;60907;53.268;8.764;2024-02-26T07:40:12;11.52;;;5.05;;
72791;SDS011;60907;53.268;8.764;2024-02-26T07:42:38;11.77;;;5.10;;
72791;SDS011;60907;53.268;8.764;2024-02-26T07:45:04;12.43;;;4.80;;
72791;SDS011;60907;53.268;8.764;2024-02-26T07:47:30;13.27;;;5.35;;
72791;SDS011;60907;53.268;8.764;2024-02-26T07:49:55;13.88;;;5.93;;
72791;SDS011;60907;53.268;8.764;2024-02-26T07:52:20;13.27;;;5.80;;
72791;SDS011;60907;53.268;8.764;2024-02-26T07:54:46;10.30;;;5.37;;
72791;SDS011;60907;53.268;8.764;2024-02-26T07:57:13;14.25;;;6.50;;
72791;SDS011;60907;53.268;8.764;2024-02-26T07:59:42;14.52;;;6.43;;
72791;SDS011;60907;53.268;8.764;2024-02-26T08:02:07;18.13;;;6.50;;
72791;SDS011;60907;53.268;8.764;2024-02-26T08:04:32;16.00;;;5.90;;
72791;SDS011;60907;53.268;8.764;2024-02-26T08:06:57;14.50;;;5.80;;
72791;SDS011;60907;53.268;8.764;2024-02-26T08:09:23;12.27;;;6.00;;
72791;SDS011;60907;53.268;8.764;2024-02-26T08:11:48;13.63;;;5.70;;
72791;SDS011;60907;53.268;8.764;2024-02-26T08:14:13;10.97;;;4.93;;
72791;SDS011;60907;53.268;8.764;2024-02-26T08:16:39;13.40;;;5.47;;
72791;SDS011;60907;53.268;8.764;2024-02-26T08:19:04;12.77;;;6.20;;
72791;SDS011;60907;53.268;8.764;2024-02-26T08:21:29;11.37;;;5.60;;
72791;SDS011;60907;53.268;8.764;2024-02-26T08:23:54;12.00;;;5.73;;
72791;SDS011;60907;53.268;8.764;2024-02-26T08:26:20;14.60;;;6.05;;
72791;SDS011;60907;53.268;8.764;2024-02-26T08:28:47;11.38;;;4.90;;
72791;SDS011;60907;53.268;8.764;2024-02-26T08:31:14;15.00;;;5.97;;
72791;SDS011;60907;53.268;8.764;2024-02-26T08:33:39;13.90;;;5.67;;
72791;SDS011;60907;53.268;8.764;2024-02-26T08:36:05;10.27;;;4.53;;
72791;SDS011;60907;53.268;8.764;2024-02-26T08:38:30;12.43;;;5.47;;
72791;SDS011;60907;53.268;8.764;2024-02-26T08:40:55;13.80;;;5.63;;
72791;SDS011;60907;53.268;8.764;2024-02-26T08:43:20;12.13;;;6.03;;
72791;SDS011;60907;53.268;8.764;2024-02-26T08:45:46;11.93;;;5.43;;
72791;SDS011;60907;53.268;8.764;2024-02-26T08:48:11;12.10;;;5.30;;
72791;SDS011;60907;53.268;8.764;2024-02-26T08:50:36;12.40;;;5.40;;
72791;SDS011;60907;53.268;8.764;2024-02-26T08:53:01;14.50;;;5.47;;
72791;SDS011;60907;53.268;8.764;2024-02-26T08:55:28;10.55;;;5.75;;
72791;SDS011;60907;53.268;8.764;2024-02-26T08:57:54;11.40;;;5.40;;
72791;SDS011;60907;53.268;8.764;2024-02-26T09:00:19;15.70;;;5.87;;
72791;SDS011;60907;53.268;8.764;2024-02-26T09:02:45;14.20;;;5.85;;
72791;SDS011;60907;53.268;8.764;2024-02-26T09:05:11;15.10;;;5.72;;
72791;SDS011;60907;53.268;8.764;2024-02-26T09:07:36;16.17;;;6.72;;
72791;SDS011;60907;53.268;8.764;2024-02-26T09:10:01;15.17;;;6.27;;
72791;SDS011;60907;53.268;8.764;2024-02-26T09:12:27;14.82;;;5.47;;
72791;SDS011;60907;53.268;8.764;2024-02-26T09:14:52;16.27;;;6.60;;
72791;SDS011;60907;53.268;8.764;2024-02-26T09:17:18;14.43;;;6.97;;
72791;SDS011;60907;53.268;8.764;2024-02-26T09:19:43;11.67;;;4.80;;
72791;SDS011;60907;53.268;8.764;2024-02-26T09:22:09;17.95;;;6.60;;
72791;SDS011;60907;53.268;8.764;2024-02-26T09:24:34;14.27;;;5.57;;
72791;SDS011;60907;53.268;8.764;2024-02-26T09:26:59;18.10;;;6.83;;
72791;SDS011;60907;53.268;8.764;2024-02-26T09:29:25;17.23;;;6.27;;
72791;SDS011;60907;53.268;8.764;2024-02-26T09:31:51;19.48;;;7.50;;
72791;SDS011;60907;53.268;8.764;2024-02-26T09:34:17;13.43;;;6.45;;
72791;SDS011;60907;53.268;8.764;2024-02-26T09:36:42;17.87;;;7.00;;
72791;SDS011;60907;53.268;8.764;2024-02-26T09:39:08;15.18;;;5.75;;
72791;SDS011;60907;53.268;8.764;2024-02-26T09:41:36;13.57;;;6.20;;
72791;SDS011;60907;53.268;8.764;2024-02-26T09:44:01;15.43;;;6.80;;
72791;SDS011;60907;53.268;8.764;2024-02-26T09:46:27;6.85;;;2.97;;
72791;SDS011;60907;53.268;8.764;2024-02-26T09:48:53;15.73;;;6.60;;
72791;SDS011;60907;53.268;8.764;2024-02-26T09:51:18;14.30;;;6.10;;
72791;SDS011;60907;53.268;8.764;2024-02-26T09:53:44;17.58;;;7.45;;
72791;SDS011;60907;53.268;8.764;2024-02-26T09:56:11;16.23;;;6.57;;
72791;SDS011;60907;53.268;8.764;2024-02-26T09:58:37;11.95;;;5.78;;
72791;SDS011;60907;53.268;8.764;2024-02-26T10:01:03;17.63;;;6.40;;
72791;SDS011;60907;53.268;8.764;2024-02-26T10:03:34;14.95;;;5.72;;
72791;SDS011;60907;53.268;8.764;2024-02-26T10:05:59;12.10;;;4.53;;
72791;SDS011;60907;53.268;8.764;2024-02-26T10:08:27;14.00;;;6.75;;
72791;SDS011;60907;53.268;8.764;2024-02-26T10:10:53;15.00;;;6.43;;
72791;SDS011;60907;53.268;8.764;2024-02-26T10:13:19;14.13;;;5.43;;
72791;SDS011;60907;53.268;8.764;2024-02-26T10:15:45;14.35;;;5.95;;
72791;SDS011;60907;53.268;8.764;2024-02-26T10:18:11;11.60;;;5.70;;
72791;SDS011;60907;53.268;8.764;2024-02-26T10:20:36;15.45;;;6.22;;
72791;SDS011;60907;53.268;8.764;2024-02-26T10:23:02;14.57;;;5.18;;
72791;SDS011;60907;53.268;8.764;2024-02-26T10:25:27;15.18;;;5.57;;
72791;SDS011;60907;53.268;8.764;2024-02-26T10:27:53;10.75;;;3.78;;
72791;SDS011;60907;53.268;8.764;2024-02-26T10:32:44;15.02;;;6.88;;
72791;SDS011;60907;53.268;8.764;2024-02-26T10:35:10;12.93;;;6.05;;
72791;SDS011;60907;53.268;8.764;2024-02-26T10:37:35;14.80;;;6.63;;
72791;SDS011;60907;53.268;8.764;2024-02-26T10:40:01;14.60;;;6.43;;
72791;SDS011;60907;53.268;8.764;2024-02-26T10:42:26;9.65;;;4.45;;
72791;SDS011;60907;53.268;8.764;2024-02-26T10:44:51;11.23;;;5.43;;
72791;SDS011;60907;53.268;8.764;2024-02-26T10:47:16;6.83;;;3.00;;
72791;SDS011;60907;53.268;8.764;2024-02-26T10:49:45;14.90;;;5.97;;
72791;SDS011;60907;53.268;8.764;2024-02-26T10:52:11;11.15;;;5.38;;
72791;SDS011;60907;53.268;8.764;2024-02-26T10:54:36;12.07;;;5.13;;
72791;SDS011;60907;53.268;8.764;2024-02-26T10:57:03;11.38;;;5.38;;
72791;SDS011;60907;53.268;8.764;2024-02-26T10:59:30;13.40;;;5.07;;
72791;SDS011;60907;53.268;8.764;2024-02-26T11:01:57;12.63;;;5.32;;
72791;SDS011;60907;53.268;8.764;2024-02-26T11:04:23;10.85;;;4.80;;
72791;SDS011;60907;53.268;8.764;2024-02-26T11:06:52;10.65;;;5.45;;
72791;SDS011;60907;53.268;8.764;2024-02-26T11:09:20;9.75;;;4.97;;
72791;SDS011;60907;53.268;8.764;2024-02-26T11:11:48;15.65;;;5.57;;
72791;SDS011;60907;53.268;8.764;2024-02-26T11:14:13;12.50;;;5.40;;
72791;SDS011;60907;53.268;8.764;2024-02-26T11:16:39;12.55;;;5.68;;
72791;SDS011;60907;53.268;8.764;2024-02-26T11:19:06;9.90;;;4.60;;
72791;SDS011;60907;53.268;8.764;2024-02-26T11:21:32;8.27;;;4.43;;
72791;SDS011;60907;53.268;8.764;2024-02-26T11:24:08;8.90;;;4.32;;
72791;SDS011;60907;53.268;8.764;2024-02-26T11:26:36;12.68;;;5.63;;
72791;SDS011;60907;53.268;8.764;2024-02-26T11:29:02;11.52;;;5.40;;
72791;SDS011;60907;53.268;8.764;2024-02-26T11:31:28;10.73;;;4.82;;
72791;SDS011;60907;53.268;8.764;2024-02-26T11:33:54;9.73;;;4.53;;
72791;SDS011;60907;53.268;8.764;2024-02-26T11:36:20;12.32;;;5.05;;
72791;SDS011;60907;53.268;8.764;2024-02-26T11:38:46;11.93;;;5.67;;
72791;SDS011;60907;53.268;8.764;2024-02-26T11:41:13;12.23;;;5.07;;
72791;SDS011;60907;53.268;8.764;2024-02-26T11:43:49;11.13;;;5.32;;
72791;SDS011;60907;53.268;8.764;2024-02-26T11:46:24;9.43;;;4.93;;
72791;SDS011;60907;53.268;8.764;2024-02-26T11:48:50;9.52;;;4.47;;
72791;SDS011;60907;53.268;8.764;2024-02-26T11:51:15;12.07;;;4.30;;
72791;SDS011;60907;53.268;8.764;2024-02-26T11:53:46;10.83;;;4.60;;
72791;SDS011;60907;53.268;8.764;2024-02-26T11:58:39;10.97;;;5.17;;
72791;SDS011;60907;53.268;8.764;2024-02-26T12:01:04;10.95;;;5.03;;
72791;SDS011;60907;53.268;8.764;2024-02-26T12:03:29;10.13;;;5.03;;
72791;SDS011;60907;53.268;8.764;2024-02-26T12:05:56;12.00;;;5.32;;
72791;SDS011;60907;53.268;8.764;2024-02-26T12:08:21;10.10;;;4.70;;
72791;SDS011;60907;53.268;8.764;2024-02-26T12:10:48;9.32;;;3.40;;
72791;SDS011;60907;53.268;8.764;2024-02-26T12:13:17;11.48;;;4.80;;
72791;SDS011;60907;53.268;8.764;2024-02-26T12:18:08;9.27;;;4.10;;
72791;SDS011;60907;53.268;8.764;2024-02-26T12:20:35;6.38;;;2.60;;
72791;SDS011;60907;53.268;8.764;2024-02-26T12:23:01;10.10;;;4.43;;
72791;SDS011;60907;53.268;8.764;2024-02-26T12:25:29;8.93;;;4.45;;
72791;SDS011;60907;53.268;8.764;2024-02-26T12:27:54;9.88;;;4.78;;
72791;SDS011;60907;53.268;8.764;2024-02-26T12:30:20;12.05;;;5.03;;
72791;SDS011;60907;53.268;8.764;2024-02-26T12:32:46;9.32;;;4.40;;
72791;SDS011;60907;53.268;8.764;2024-02-26T12:35:12;8.70;;;4.07;;
72791;SDS011;60907;53.268;8.764;2024-02-26T12:37:38;9.48;;;4.78;;
72791;SDS011;60907;53.268;8.764;2024-02-26T12:40:05;11.63;;;5.25;;
72791;SDS011;60907;53.268;8.764;2024-02-26T12:42:31;10.18;;;4.85;;
72791;SDS011;60907;53.268;8.764;2024-02-26T12:44:58;10.27;;;4.70;;
72791;SDS011;60907;53.268;8.764;2024-02-26T12:47:23;12.10;;;5.53;;
72791;SDS011;60907;53.268;8.764;2024-02-26T12:49:49;11.53;;;5.77;;
72791;SDS011;60907;53.268;8.764;2024-02-26T12:52:14;13.07;;;5.90;;
72791;SDS011;60907;53.268;8.764;2024-02-26T12:54:41;15.68;;;6.38;;
72791;SDS011;60907;53.268;8.764;2024-02-26T12:57:07;19.88;;;9.05;;
72791;SDS011;60907;53.268;8.764;2024-02-26T12:59:33;20.67;;;9.75;;
72791;SDS011;60907;53.268;8.764;2024-02-26T13:01:59;14.23;;;6.90;;
72791;SDS011;60907;53.268;8.764;2024-02-26T13:04:26;13.30;;;5.57;;
72791;SDS011;60907;53.268;8.764;2024-02-26T13:06:51;14.55;;;8.60;;
72791;SDS011;60907;53.268;8.764;2024-02-26T13:09:16;13.10;;;6.07;;
72791;SDS011;60907;53.268;8.764;2024-02-26T13:11:43;13.57;;;7.40;;
72791;SDS011;60907;53.268;8.764;2024-02-26T13:14:18;10.80;;;4.80;;
72791;SDS011;60907;53.268;8.764;2024-02-26T13:16:44;7.95;;;4.47;;
72791;SDS011;60907;53.268;8.764;2024-02-26T13:19:09;11.47;;;5.50;;
72791;SDS011;60907;53.268;8.764;2024-02-26T13:21:35;7.57;;;3.40;;
72791;SDS011;60907;53.268;8.764;2024-02-26T13:24:00;9.03;;;4.50;;
72791;SDS011;60907;53.268;8.764;2024-02-26T13:26:25;7.97;;;4.47;;
72791;SDS011;60907;53.268;8.764;2024-02-26T13:29:01;9.57;;;4.67;;
72791;SDS011;60907;53.268;8.764;2024-02-26T13:31:26;8.10;;;4.20;;
72791;SDS011;60907;53.268;8.764;2024-02-26T13:33:52;8.33;;;3.87;;
72791;SDS011;60907;53.268;8.764;2024-02-26T13:36:20;9.68;;;4.70;;
72791;SDS011;60907;53.268;8.764;2024-02-26T13:38:55;9.93;;;4.67;;
72791;SDS011;60907;53.268;8.764;2024-02-26T13:41:21;12.00;;;5.18;;
72791;SDS011;60907;53.268;8.764;2024-02-26T13:43:46;9.35;;;4.35;;
72791;SDS011;60907;53.268;8.764;2024-02-26T13:46:11;7.43;;;4.30;;
72791;SDS011;60907;53.268;8.764;2024-02-26T13:48:38;8.02;;;4.43;;
72791;SDS011;60907;53.268;8.764;2024-02-26T13:51:04;9.47;;;5.00;;
72791;SDS011;60907;53.268;8.764;2024-02-26T13:53:29;8.90;;;4.75;;
72791;SDS011;60907;53.268;8.764;2024-02-26T13:55:54;7.80;;;4.77;;
72791;SDS011;60907;53.268;8.764;2024-02-26T13:58:20;9.30;;;4.13;;
72791;SDS011;60907;53.268;8.764;2024-02-26T14:00:48;8.07;;;4.13;;
72791;SDS011;60907;53.268;8.764;2024-02-26T14:03:14;9.52;;;4.82;;
72791;SDS011;60907;53.268;8.764;2024-02-26T14:05:39;8.40;;;4.77;;
72791;SDS011;60907;53.268;8.764;2024-02-26T14:08:05;8.85;;;4.07;;
72791;SDS011;60907;53.268;8.764;2024-02-26T14:10:30;7.07;;;4.13;;
72791;SDS011;60907;53.268;8.764;2024-02-26T14:12:56;9.50;;;4.50;;
72791;SDS011;60907;53.268;8.764;2024-02-26T14:15:22;8.32;;;4.15;;
72791;SDS011;60907;53.268;8.764;2024-02-26T14:17:49;9.90;;;4.20;;
72791;SDS011;60907;53.268;8.764;2024-02-26T14:20:24;8.30;;;4.50;;
72791;SDS011;60907;53.268;8.764;2024-02-26T14:22:52;7.43;;;4.28;;
72791;SDS011;60907;53.268;8.764;2024-02-26T14:25:18;8.45;;;4.38;;
72791;SDS011;60907;53.268;8.764;2024-02-26T14:27:44;7.38;;;4.07;;
72791;SDS011;60907;53.268;8.764;2024-02-26T14:30:10;10.37;;;4.30;;
72791;SDS011;60907;53.268;8.764;2024-02-26T14:32:35;8.52;;;4.55;;
72791;SDS011;60907;53.268;8.764;2024-02-26T14:35:02;8.85;;;4.80;;
72791;SDS011;60907;53.268;8.764;2024-02-26T14:37:28;9.57;;;4.70;;
72791;SDS011;60907;53.268;8.764;2024-02-26T14:39:53;10.27;;;5.30;;